createdAt,value
2023-02-13T00:00:38.292Z,50.86
2023-02-13T00:03:06.274Z,50.24
2023-02-13T00:05:32.972Z,52.46
2023-02-13T00:07:59.668Z,51.00
2023-02-13T00:10:26.350Z,52.44
2023-02-13T00:12:53.058Z,52.49
2023-02-13T00:15:19.741Z,52.56
2023-02-13T00:17:46.428Z,53.54
2023-02-13T00:20:13.215Z,55.98
2023-02-13T00:22:39.895Z,57.33
2023-02-13T00:25:07.176Z,55.97
2023-02-13T00:27:33.987Z,55.59
2023-02-13T00:30:00.738Z,55.73
2023-02-13T00:32:27.409Z,55.49
2023-02-13T00:34:54.094Z,54.38
2023-02-13T00:37:20.734Z,54.85
2023-02-13T00:39:47.475Z,51.39
2023-02-13T00:42:14.143Z,52.83
2023-02-13T00:44:40.841Z,52.41
2023-02-13T00:47:07.517Z,53.95
2023-02-13T00:49:34.188Z,53.48
2023-02-13T00:52:00.886Z,52.87
2023-02-13T00:54:27.575Z,52.04
2023-02-13T00:56:54.231Z,53.42
2023-02-13T00:59:21.054Z,54.02
2023-02-13T01:01:47.753Z,55.00
2023-02-13T01:04:14.451Z,53.40
2023-02-13T01:06:41.248Z,56.40
2023-02-13T01:09:07.928Z,54.78
2023-02-13T01:11:34.596Z,56.17
2023-02-13T01:14:01.395Z,56.92
2023-02-13T01:16:28.198Z,53.63
2023-02-13T01:18:54.945Z,55.80
2023-02-13T01:21:22.091Z,56.83
2023-02-13T01:23:48.869Z,57.00
2023-02-13T01:26:21.606Z,57.10
2023-02-13T01:28:48.377Z,56.45
2023-02-13T01:31:15.313Z,55.33
2023-02-13T01:33:42.084Z,54.58
2023-02-13T01:36:10.027Z,59.05
2023-02-13T01:38:36.743Z,63.90
2023-02-13T01:41:03.476Z,58.00
2023-02-13T01:43:50.089Z,53.86
2023-02-13T01:46:18.681Z,51.28
2023-02-13T01:48:45.498Z,50.66
2023-02-13T01:51:13.696Z,51.64
2023-02-13T01:53:42.368Z,52.61
2023-02-13T01:56:11.452Z,52.00
2023-02-13T01:58:38.504Z,54.54
2023-02-13T02:01:05.286Z,52.74
2023-02-13T02:03:33.547Z,52.29
2023-02-13T02:06:00.204Z,53.19
2023-02-13T02:08:26.872Z,52.70
2023-02-13T02:10:54.272Z,52.27
2023-02-13T02:13:21.471Z,53.45
2023-02-13T02:15:49.024Z,53.83
2023-02-13T02:18:16.596Z,53.73
2023-02-13T02:21:01.716Z,54.48
2023-02-13T02:23:46.824Z,55.07
2023-02-13T02:26:16.254Z,53.05
2023-02-13T02:28:42.884Z,53.09
2023-02-13T02:31:15.330Z,55.59
2023-02-13T02:34:00.780Z,56.10
2023-02-13T02:36:30.339Z,55.48
2023-02-13T02:39:00.001Z,55.88
2023-02-13T02:41:41.896Z,56.25
2023-02-13T02:44:17.816Z,56.53
2023-02-13T02:47:04.385Z,55.67
2023-02-13T02:49:49.446Z,54.37
2023-02-13T02:52:18.140Z,55.51
2023-02-13T02:55:07.312Z,56.27
2023-02-13T02:57:53.605Z,55.92
2023-02-13T03:00:39.793Z,54.77
2023-02-13T03:03:25.292Z,55.38
2023-02-13T03:06:10.605Z,58.76
2023-02-13T03:08:56.375Z,59.52
2023-02-13T03:11:41.544Z,56.92
2023-02-13T03:14:08.396Z,56.15
2023-02-13T03:16:53.835Z,55.28
2023-02-13T03:19:41.982Z,55.51
2023-02-13T03:22:27.348Z,56.76
2023-02-13T03:25:02.438Z,60.69
2023-02-13T03:27:50.811Z,56.94
2023-02-13T03:30:34.119Z,56.01
2023-02-13T03:33:00.920Z,55.97
2023-02-13T03:35:53.405Z,56.89
2023-02-13T03:38:24.838Z,56.79
2023-02-13T03:41:16.175Z,59.48
2023-02-13T03:43:45.658Z,60.47
2023-02-13T03:46:12.392Z,61.28
2023-02-13T03:48:57.880Z,61.98
2023-02-13T03:51:27.661Z,61.82
2023-02-13T03:53:56.576Z,60.20
2023-02-13T03:56:42.024Z,60.14
2023-02-13T03:59:18.368Z,57.04
2023-02-13T04:01:46.794Z,56.46
2023-02-13T04:04:15.936Z,58.15
2023-02-13T04:07:02.912Z,58.28
2023-02-13T04:09:29.906Z,58.61
2023-02-13T04:11:59.103Z,57.72
2023-02-13T04:14:27.976Z,57.21
2023-02-13T04:16:58.606Z,56.48
2023-02-13T04:19:25.815Z,58.86
2023-02-13T04:21:56.545Z,57.46
2023-02-13T04:24:23.312Z,58.80
2023-02-13T04:26:50.046Z,57.00
2023-02-13T04:29:16.719Z,57.66
2023-02-13T04:31:43.603Z,55.22
2023-02-13T04:34:10.453Z,54.40
2023-02-13T04:36:37.154Z,59.14
2023-02-13T04:39:03.909Z,58.03
2023-02-13T04:41:30.626Z,58.25
2023-02-13T04:43:57.388Z,56.83
2023-02-13T04:46:24.173Z,58.20
2023-02-13T04:48:50.906Z,58.30
2023-02-13T04:51:17.675Z,58.50
2023-02-13T04:53:44.387Z,57.83
2023-02-13T04:56:11.246Z,57.39
2023-02-13T04:58:37.948Z,58.17
2023-02-13T05:01:11.630Z,61.72
2023-02-13T05:03:38.344Z,60.47
2023-02-13T05:06:05.185Z,59.22
2023-02-13T05:08:31.883Z,59.55
2023-02-13T05:10:58.847Z,59.56
2023-02-13T05:13:25.723Z,58.99
2023-02-13T05:15:55.133Z,56.10
2023-02-13T05:18:21.912Z,56.13
2023-02-13T05:21:11.273Z,55.10
2023-02-13T05:23:38.074Z,55.73
2023-02-13T05:26:04.982Z,55.17
2023-02-13T05:28:50.422Z,55.61
2023-02-13T05:31:17.342Z,55.58
2023-02-13T05:33:44.113Z,59.48
2023-02-13T05:36:10.843Z,60.80
2023-02-13T05:38:37.577Z,62.44
2023-02-13T05:41:04.324Z,60.68
2023-02-13T05:43:31.083Z,58.92
2023-02-13T05:46:07.598Z,60.00
2023-02-13T05:48:34.697Z,61.20
2023-02-13T05:51:01.736Z,57.04
2023-02-13T05:53:29.943Z,58.34
2023-02-13T05:55:56.867Z,60.46
2023-02-13T05:58:23.862Z,60.28
2023-02-13T06:00:50.643Z,58.98
2023-02-13T06:03:17.329Z,60.29
2023-02-13T06:05:44.100Z,59.05
2023-02-13T06:08:10.871Z,60.68
2023-02-13T06:10:37.601Z,58.12
2023-02-13T06:13:04.281Z,58.27
2023-02-13T06:15:31.016Z,57.13
2023-02-13T06:17:57.849Z,59.63
2023-02-13T06:20:24.716Z,60.38
2023-02-13T06:22:51.781Z,59.14
2023-02-13T06:25:18.534Z,60.78
2023-02-13T06:27:45.379Z,62.65
2023-02-13T06:30:12.400Z,58.27
2023-02-13T06:32:39.193Z,58.28
2023-02-13T06:35:06.265Z,59.77
2023-02-13T06:37:33.105Z,60.62
2023-02-13T06:39:59.813Z,61.47
2023-02-13T06:42:26.512Z,61.51
2023-02-13T06:44:53.264Z,62.73
2023-02-13T06:47:20.049Z,62.08
2023-02-13T06:49:46.857Z,61.34
2023-02-13T06:52:13.641Z,61.24
2023-02-13T06:54:47.246Z,63.22
2023-02-13T06:57:15.177Z,62.32
2023-02-13T06:59:42.108Z,62.07
2023-02-13T07:02:12.230Z,63.45
2023-02-13T07:04:38.933Z,62.93
2023-02-13T07:07:05.708Z,66.26
2023-02-13T07:09:32.347Z,70.01
2023-02-13T07:11:59.019Z,65.97
2023-02-13T07:14:25.692Z,65.59
2023-02-13T07:16:52.329Z,65.10
2023-02-13T07:19:19.125Z,64.41
2023-02-13T07:21:45.845Z,62.97
2023-02-13T07:24:12.545Z,63.18
2023-02-13T07:26:39.185Z,59.48
2023-02-13T07:29:11.627Z,55.77
2023-02-13T07:31:39.425Z,54.76
2023-02-13T07:34:06.214Z,53.27
2023-02-13T07:36:32.879Z,52.71
2023-02-13T07:38:59.592Z,54.20
2023-02-13T07:41:27.119Z,54.28
2023-02-13T07:43:54.451Z,55.19
2023-02-13T07:46:21.271Z,51.83
2023-02-13T07:48:47.965Z,50.50
2023-02-13T07:51:14.835Z,49.27
2023-02-13T07:53:41.519Z,48.40
2023-02-13T07:56:08.519Z,48.00
2023-02-13T07:58:35.946Z,46.45
2023-02-13T08:01:09.333Z,45.56
2023-02-13T08:03:57.149Z,46.04
2023-02-13T08:06:25.222Z,45.29
2023-02-13T08:09:11.795Z,46.13
2023-02-13T08:11:56.569Z,45.18
2023-02-13T08:14:23.921Z,44.68
2023-02-13T08:16:50.814Z,44.05
2023-02-13T08:19:17.552Z,43.84
2023-02-13T08:21:44.260Z,42.50
2023-02-13T08:24:11.051Z,41.29
2023-02-13T08:26:37.687Z,39.57
2023-02-13T08:29:04.778Z,40.22
2023-02-13T08:31:31.710Z,40.67
2023-02-13T08:33:58.532Z,40.64
2023-02-13T08:36:25.261Z,39.62
2023-02-13T08:38:51.994Z,40.40
2023-02-13T08:41:19.463Z,38.27
2023-02-13T08:43:46.136Z,38.28
2023-02-13T08:46:12.871Z,37.42
2023-02-13T08:48:39.613Z,37.34
2023-02-13T08:51:09.926Z,38.39
2023-02-13T08:53:37.038Z,40.63
2023-02-13T08:56:03.855Z,38.18
2023-02-13T08:58:30.606Z,37.48
2023-02-13T09:00:57.449Z,37.74
2023-02-13T09:03:24.233Z,37.85
2023-02-13T09:05:50.924Z,38.68
2023-02-13T09:08:18.836Z,41.21
2023-02-13T09:10:45.755Z,41.80
2023-02-13T09:13:12.644Z,40.09
2023-02-13T09:15:40.613Z,45.30
2023-02-13T09:18:07.535Z,45.54
2023-02-13T09:20:35.798Z,43.68
2023-02-13T09:23:02.845Z,41.43
2023-02-13T09:25:29.573Z,43.63
2023-02-13T09:27:56.264Z,45.05
2023-02-13T09:30:26.034Z,45.38
2023-02-13T09:32:53.078Z,43.82
2023-02-13T09:35:20.370Z,45.03
2023-02-13T09:37:47.255Z,42.71
2023-02-13T09:40:27.763Z,44.15
2023-02-13T09:42:55.283Z,43.57
2023-02-13T09:45:22.030Z,45.20
2023-02-13T09:47:51.834Z,44.98
2023-02-13T09:50:34.938Z,42.52
2023-02-13T09:53:01.806Z,43.15
2023-02-13T09:55:28.955Z,43.92
2023-02-13T09:58:20.599Z,44.76
2023-02-13T10:00:50.886Z,43.21
2023-02-13T10:03:17.824Z,42.57
2023-02-13T10:05:50.224Z,42.62
2023-02-13T10:08:35.559Z,45.47
2023-02-13T10:11:05.371Z,46.05
2023-02-13T10:13:50.589Z,44.00
2023-02-13T10:16:31.312Z,43.44
2023-02-13T10:18:59.285Z,42.51
2023-02-13T10:21:28.905Z,43.25
2023-02-13T10:24:03.311Z,41.10
2023-02-13T10:26:42.889Z,41.47
2023-02-13T10:29:31.244Z,42.39
2023-02-13T10:32:00.829Z,42.38
2023-02-13T10:34:27.659Z,42.42
2023-02-13T10:36:54.370Z,44.91
2023-02-13T10:39:25.774Z,44.92
2023-02-13T10:41:59.164Z,43.21
2023-02-13T10:44:44.596Z,45.63
2023-02-13T10:47:29.455Z,46.50
2023-02-13T10:49:59.360Z,48.09
2023-02-13T10:52:26.064Z,47.83
2023-02-13T10:55:11.622Z,46.69
2023-02-13T10:57:57.680Z,45.89
2023-02-13T11:00:46.876Z,44.34
2023-02-13T11:03:16.262Z,45.28
2023-02-13T11:05:42.995Z,47.28
2023-02-13T11:08:33.018Z,48.02
2023-02-13T11:10:59.727Z,47.07
2023-02-13T11:13:27.457Z,47.39
2023-02-13T11:16:17.306Z,48.29
2023-02-13T11:18:44.470Z,48.76
2023-02-13T11:21:13.473Z,48.00
2023-02-13T11:23:44.410Z,46.03
2023-02-13T11:26:37.256Z,47.36
2023-02-13T11:29:15.445Z,48.40
2023-02-13T11:31:42.243Z,48.43
2023-02-13T11:34:25.664Z,47.47
2023-02-13T11:37:16.182Z,48.21
2023-02-13T11:39:43.586Z,47.82
2023-02-13T11:42:29.810Z,46.61
2023-02-13T11:44:59.119Z,47.25
2023-02-13T11:47:35.365Z,46.07
2023-02-13T11:50:03.180Z,48.57
2023-02-13T11:52:34.275Z,48.31
2023-02-13T11:55:05.018Z,48.67
2023-02-13T11:57:32.983Z,47.45
2023-02-13T12:00:00.429Z,49.13
2023-02-13T12:02:28.261Z,51.37
2023-02-13T12:05:13.549Z,51.86
2023-02-13T12:07:40.219Z,49.06
2023-02-13T12:10:19.278Z,48.59
2023-02-13T12:13:09.077Z,49.60
2023-02-13T12:15:36.568Z,48.72
2023-02-13T12:18:22.095Z,47.15
2023-02-13T12:20:54.174Z,49.52
2023-02-13T12:23:28.508Z,49.91
2023-02-13T12:25:58.508Z,47.90
2023-02-13T12:28:33.170Z,47.66
2023-02-13T12:31:05.947Z,48.94
2023-02-13T12:33:51.898Z,47.52
2023-02-13T12:36:22.013Z,47.22
2023-02-13T12:39:00.990Z,50.11
2023-02-13T12:41:36.450Z,49.92
2023-02-13T12:44:14.601Z,49.22
2023-02-13T12:46:41.294Z,52.67
2023-02-13T12:49:17.370Z,54.54
2023-02-13T12:51:50.213Z,52.85
2023-02-13T12:54:16.872Z,55.03
2023-02-13T12:57:02.538Z,53.47
2023-02-13T12:59:31.605Z,57.78
2023-02-13T13:02:01.247Z,57.40
2023-02-13T13:04:48.339Z,55.97
2023-02-13T13:07:27.423Z,55.98
2023-02-13T13:09:54.118Z,57.47
2023-02-13T13:12:26.694Z,58.36
2023-02-13T13:14:59.617Z,57.61
2023-02-13T13:17:39.266Z,56.15
2023-02-13T13:20:08.944Z,55.67
2023-02-13T13:22:38.609Z,58.02
2023-02-13T13:25:11.767Z,58.01
2023-02-13T13:27:40.363Z,57.52
2023-02-13T13:30:19.524Z,56.53
2023-02-13T13:32:46.320Z,53.33
2023-02-13T13:35:16.230Z,54.32
2023-02-13T13:37:45.386Z,54.03
2023-02-13T13:40:30.897Z,52.19
2023-02-13T13:43:02.291Z,51.36
2023-02-13T13:45:28.951Z,50.24
2023-02-13T13:48:14.445Z,53.59
2023-02-13T13:50:41.988Z,55.67
2023-02-13T13:53:08.645Z,53.03
2023-02-13T13:55:49.920Z,54.03
2023-02-13T13:58:25.758Z,53.04
2023-02-13T14:01:11.077Z,54.26
2023-02-13T14:03:40.168Z,52.48
2023-02-13T14:06:08.009Z,55.18
2023-02-13T14:08:37.485Z,55.95
2023-02-13T14:11:05.379Z,53.38
2023-02-13T14:13:34.834Z,54.67
2023-02-13T14:16:02.013Z,56.28
2023-02-13T14:18:28.832Z,56.10
2023-02-13T14:21:00.074Z,56.52
2023-02-13T14:23:50.430Z,59.84
2023-02-13T14:26:17.130Z,58.19
2023-02-13T14:28:44.664Z,54.81
2023-02-13T14:31:27.541Z,58.27
2023-02-13T14:34:01.461Z,57.32
2023-02-13T14:36:33.557Z,56.62
2023-02-13T14:39:18.814Z,56.81
2023-02-13T14:41:51.392Z,55.02
2023-02-13T14:44:32.473Z,57.17
2023-02-13T14:47:00.505Z,57.95
2023-02-13T14:49:28.576Z,58.72
2023-02-13T14:51:59.152Z,56.78
2023-02-13T14:54:36.728Z,54.26
2023-02-13T14:57:10.381Z,52.17
2023-02-13T14:59:37.557Z,52.66
2023-02-13T15:02:13.318Z,53.26
2023-02-13T15:04:43.973Z,56.83
2023-02-13T15:07:25.045Z,55.66
2023-02-13T15:10:04.770Z,54.85
2023-02-13T15:12:32.732Z,55.97
2023-02-13T15:15:01.553Z,56.76
2023-02-13T15:17:30.282Z,55.57
2023-02-13T15:20:00.211Z,55.47
2023-02-13T15:22:33.994Z,53.65
2023-02-13T15:25:00.728Z,56.77
2023-02-13T15:27:31.330Z,55.78
2023-02-13T15:30:05.656Z,56.09
2023-02-13T15:32:37.007Z,56.15
2023-02-13T15:35:22.646Z,54.92
2023-02-13T15:37:49.348Z,55.96
2023-02-13T15:40:17.402Z,55.13
2023-02-13T15:42:44.097Z,56.21
2023-02-13T15:45:14.192Z,59.61
2023-02-13T15:47:40.859Z,60.39
2023-02-13T15:50:15.199Z,59.80
2023-02-13T15:52:41.912Z,58.85
2023-02-13T15:55:18.391Z,58.68
2023-02-13T15:57:45.081Z,60.12
2023-02-13T16:00:17.999Z,61.46
2023-02-13T16:02:46.373Z,62.13
2023-02-13T16:05:13.378Z,61.30
2023-02-13T16:07:48.482Z,61.32
2023-02-13T16:10:16.267Z,61.43
2023-02-13T16:12:45.403Z,62.36
2023-02-13T16:15:19.146Z,63.25
2023-02-13T16:17:46.205Z,63.14
2023-02-13T16:20:12.893Z,61.35
2023-02-13T16:22:45.777Z,61.26
2023-02-13T16:25:12.434Z,61.80
2023-02-13T16:27:52.564Z,60.92
2023-02-13T16:30:35.606Z,60.62
2023-02-13T16:33:17.426Z,60.62
2023-02-13T16:35:44.860Z,60.74
2023-02-13T16:38:27.285Z,59.43
2023-02-13T16:40:55.776Z,62.29
2023-02-13T16:43:39.233Z,64.46
2023-02-13T16:46:12.246Z,63.87
2023-02-13T16:48:38.989Z,65.15
2023-02-13T16:51:05.645Z,68.44
2023-02-13T16:53:34.201Z,65.34
2023-02-13T16:56:10.899Z,67.07
2023-02-13T16:58:37.589Z,68.40
2023-02-13T17:01:04.345Z,66.80
2023-02-13T17:03:32.098Z,68.61
2023-02-13T17:06:02.379Z,68.28
2023-02-13T17:08:30.618Z,66.02
2023-02-13T17:11:07.399Z,63.83
2023-02-13T17:13:34.216Z,63.02
2023-02-13T17:16:00.884Z,60.74
2023-02-13T17:18:27.632Z,61.09
2023-02-13T17:20:54.312Z,60.84
2023-02-13T17:23:22.669Z,61.95
2023-02-13T17:25:49.933Z,62.03
2023-02-13T17:28:18.272Z,62.14
2023-02-13T17:30:45.162Z,61.30
2023-02-13T17:33:15.584Z,60.93
2023-02-13T17:35:42.278Z,60.11
2023-02-13T17:38:09.828Z,60.07
2023-02-13T17:40:36.533Z,59.64
2023-02-13T17:43:03.257Z,62.18
2023-02-13T17:45:31.479Z,62.40
2023-02-13T17:47:58.376Z,63.86
2023-02-13T17:50:28.370Z,71.42
2023-02-13T17:52:55.081Z,66.96
2023-02-13T17:55:22.954Z,66.59
2023-02-13T17:57:49.639Z,64.25
2023-02-13T18:00:16.800Z,63.57
2023-02-13T18:02:43.483Z,65.01
2023-02-13T18:05:10.317Z,60.29
2023-02-13T18:07:36.981Z,59.94
2023-02-13T18:10:03.713Z,58.94
2023-02-13T18:12:30.397Z,60.47
2023-02-13T18:14:57.079Z,62.68
2023-02-13T18:17:23.809Z,60.49
2023-02-13T18:19:51.016Z,62.06
2023-02-13T18:22:17.643Z,60.61
2023-02-13T18:24:44.346Z,58.15
2023-02-13T18:27:13.641Z,58.58
2023-02-13T18:29:40.429Z,55.07
2023-02-13T18:32:10.221Z,56.22
2023-02-13T18:34:37.453Z,58.75
2023-02-13T18:37:04.485Z,58.20
2023-02-13T18:39:32.509Z,59.54
2023-02-13T18:41:59.502Z,58.51
2023-02-13T18:44:28.742Z,60.41
2023-02-13T18:46:55.901Z,58.78
2023-02-13T18:49:22.553Z,59.81
2023-02-13T18:51:49.219Z,56.80
2023-02-13T18:54:16.555Z,55.46
2023-02-13T18:56:43.228Z,56.68
2023-02-13T18:59:09.873Z,58.62
2023-02-13T19:01:36.820Z,58.65
2023-02-13T19:04:03.923Z,57.69
2023-02-13T19:06:30.741Z,54.64
2023-02-13T19:08:57.584Z,56.58
2023-02-13T19:11:25.068Z,60.76
2023-02-13T19:13:55.762Z,56.79
2023-02-13T19:16:22.954Z,55.55
2023-02-13T19:18:53.110Z,57.62
2023-02-13T19:21:24.075Z,56.97
2023-02-13T19:23:51.104Z,57.88
2023-02-13T19:26:18.902Z,57.58
2023-02-13T19:28:45.663Z,56.87
2023-02-13T19:31:15.193Z,55.56
2023-02-13T19:33:42.290Z,54.42
2023-02-13T19:36:11.936Z,54.43
2023-02-13T19:38:39.006Z,56.28
2023-02-13T19:41:06.170Z,56.98
2023-02-13T19:43:33.132Z,55.68
2023-02-13T19:46:05.832Z,56.60
2023-02-13T19:48:32.592Z,57.29
2023-02-13T19:50:59.539Z,58.27
2023-02-13T19:53:26.396Z,59.81
2023-02-13T19:55:58.492Z,60.53
2023-02-13T19:58:25.222Z,61.76
2023-02-13T20:00:51.851Z,60.51
2023-02-13T20:03:18.511Z,59.26
2023-02-13T20:05:45.193Z,58.29
2023-02-13T20:08:11.987Z,62.83
2023-02-13T20:10:38.718Z,59.71
2023-02-13T20:13:05.392Z,57.90
2023-02-13T20:15:32.496Z,56.88
2023-02-13T20:17:59.205Z,55.99
2023-02-13T20:20:27.973Z,54.85
2023-02-13T20:22:54.712Z,54.09
2023-02-13T20:25:22.251Z,53.46
2023-02-13T20:27:48.959Z,54.10
2023-02-13T20:30:16.120Z,53.87
2023-02-13T20:32:42.948Z,54.02
2023-02-13T20:35:09.666Z,53.80
2023-02-13T20:37:36.410Z,51.09
2023-02-13T20:40:03.069Z,51.74
2023-02-13T20:42:32.071Z,51.58
2023-02-13T20:44:58.725Z,50.93
2023-02-13T20:47:25.390Z,53.36
2023-02-13T20:49:52.084Z,51.34
2023-02-13T20:52:18.803Z,51.35
2023-02-13T20:54:45.510Z,51.83
2023-02-13T20:57:13.373Z,52.04
2023-02-13T20:59:42.775Z,51.76
2023-02-13T21:02:09.924Z,53.30
2023-02-13T21:04:36.665Z,54.31
2023-02-13T21:07:03.741Z,54.06
2023-02-13T21:09:30.452Z,55.14
2023-02-13T21:11:57.103Z,54.51
2023-02-13T21:14:24.602Z,53.73
2023-02-13T21:16:51.293Z,52.98
2023-02-13T21:19:19.332Z,52.93
2023-02-13T21:21:46.341Z,54.14
2023-02-13T21:24:15.359Z,55.49
2023-02-13T21:26:42.263Z,55.08
2023-02-13T21:29:08.954Z,55.21
2023-02-13T21:31:37.264Z,54.35
2023-02-13T21:34:05.008Z,56.24
2023-02-13T21:36:32.070Z,54.65
2023-02-13T21:38:58.789Z,54.29
2023-02-13T21:41:25.568Z,53.26
2023-02-13T21:43:52.223Z,52.82
2023-02-13T21:46:20.760Z,53.06
2023-02-13T21:48:47.745Z,53.44
2023-02-13T21:51:15.364Z,52.61
2023-02-13T21:53:42.360Z,51.92
2023-02-13T21:56:11.027Z,53.40
2023-02-13T21:58:38.251Z,55.11
2023-02-13T22:01:23.817Z,53.98
2023-02-13T22:03:51.907Z,51.63
2023-02-13T22:06:20.031Z,52.73
2023-02-13T22:08:46.767Z,53.24
2023-02-13T22:11:13.450Z,53.92
2023-02-13T22:13:40.096Z,50.98
2023-02-13T22:16:07.998Z,48.81
2023-02-13T22:18:38.883Z,52.94
2023-02-13T22:21:06.332Z,54.73
2023-02-13T22:23:36.419Z,53.87
2023-02-13T22:26:03.921Z,52.59
2023-02-13T22:28:30.985Z,50.86
2023-02-13T22:30:58.047Z,49.64
2023-02-13T22:33:24.905Z,52.60
2023-02-13T22:35:51.547Z,52.86
2023-02-13T22:38:18.249Z,51.15
2023-02-13T22:40:44.898Z,52.21
2023-02-13T22:43:11.563Z,54.39
2023-02-13T22:45:38.439Z,52.93
2023-02-13T22:48:05.675Z,52.53
2023-02-13T22:50:32.586Z,55.53
2023-02-13T22:52:59.293Z,52.46
2023-02-13T22:55:26.174Z,52.37
2023-02-13T22:57:55.746Z,51.23
2023-02-13T23:00:22.906Z,52.88
2023-02-13T23:02:50.038Z,50.15
2023-02-13T23:05:17.137Z,52.00
2023-02-13T23:07:43.928Z,51.23
2023-02-13T23:10:11.050Z,50.00
2023-02-13T23:12:39.208Z,50.54
2023-02-13T23:15:07.464Z,49.95
2023-02-13T23:17:53.250Z,50.63
2023-02-13T23:20:20.685Z,49.13
2023-02-13T23:22:47.496Z,49.78
2023-02-13T23:25:14.336Z,50.80
2023-02-13T23:27:41.087Z,51.26
2023-02-13T23:30:08.299Z,53.20
2023-02-13T23:32:35.042Z,53.18
2023-02-13T23:35:01.718Z,54.22
2023-02-13T23:37:28.445Z,54.59
2023-02-13T23:39:55.220Z,54.30
2023-02-13T23:42:21.936Z,54.65
2023-02-13T23:44:48.593Z,55.27
2023-02-13T23:47:15.342Z,53.35
2023-02-13T23:49:42.125Z,52.32
2023-02-13T23:52:08.819Z,52.81
2023-02-13T23:54:35.643Z,52.25
2023-02-13T23:57:02.289Z,50.60
2023-02-13T23:59:28.939Z,51.28
